Time;durP1;ratioP1;P1;durP2;ratioP2;P2;SDS_P1;SDS_P2;PMS_P1;PMS_P2;Temp;Humidity;BMP_temperature;BMP_pressure;BME280_temperature;BME280_humidity;BME280_pressure;Samples;Min_cycle;Max_cycle;Signal;HPM_P1;HPM_P2
2022/06/03 00:01:08;;;;;;;3.90;0.90;;;13.60;99.90;;;;;;5026454;28;20064;-72
2022/06/03 00:03:55;;;;;;;4.55;1.33;;;13.60;99.90;;;;;;5032246;28;20034;-72
2022/06/03 00:06:27;;;;;;;2.97;1.13;;;13.50;99.90;;;;;;5025821;28;20068;-71
2022/06/03 00:09:14;;;;;;;3.75;1.05;;;13.50;99.90;;;;;;5025671;28;20042;-73
2022/06/03 00:12:23;;;;;;;2.50;1.38;;;13.40;99.90;;;;;;5031785;28;20100;-71
2022/06/03 00:15:01;;;;;;;3.03;1.00;;;13.40;99.90;;;;;;4975743;28;20046;-71
2022/06/03 00:17:39;;;;;;;2.08;1.02;;;13.40;99.90;;;;;;5024447;28;20052;-71
2022/06/03 00:20:42;;;;;;;2.63;1.30;;;13.30;99.90;;;;;;5031713;28;20490;-71
2022/06/03 00:23:10;;;;;;;2.88;1.00;;;13.40;99.90;;;;;;5021173;28;20064;-73
2022/06/03 00:26:00;;;;;;;2.28;1.13;;;13.30;99.90;;;;;;5029884;28;20358;-72
2022/06/03 00:28:59;;;;;;;3.05;0.93;;;13.30;99.90;;;;;;5027113;28;20691;-72
2022/06/03 00:31:44;;;;;;;2.20;1.30;;;13.30;99.90;;;;;;5028564;28;20034;-72
2022/06/03 00:34:29;;;;;;;2.75;1.48;;;13.30;99.90;;;;;;5035335;28;20040;-72
2022/06/03 00:37:13;;;;;;;2.70;1.15;;;13.20;99.90;;;;;;5030217;28;20029;-72
2022/06/03 00:39:38;;;;;;;2.67;0.90;;;13.20;99.90;;;;;;5036616;28;20037;-72
2022/06/03 00:42:29;;;;;;;4.50;0.85;;;13.10;99.90;;;;;;5035359;28;20033;-72
2022/06/03 00:45:25;;;;;;;3.47;1.00;;;13.10;99.90;;;;;;5030309;28;20462;-72
2022/06/03 00:48:36;;;;;;;2.30;0.90;;;13.10;99.90;;;;;;5029060;28;20552;-73
2022/06/03 00:51:13;;;;;;;1.63;0.80;;;13.00;99.90;;;;;;5017933;28;20128;-72
2022/06/03 00:53:39;;;;;;;3.78;0.82;;;13.00;99.90;;;;;;5032671;28;20041;-72
2022/06/03 00:56:38;;;;;;;3.97;1.10;;;13.00;99.90;;;;;;5035293;28;20025;-72
2022/06/03 00:59:28;;;;;;;1.73;0.88;;;12.90;99.90;;;;;;5031429;28;20049;-71
2022/06/03 01:02:31;;;;;;;4.97;0.90;;;13.00;99.90;;;;;;5026692;28;20494;-72
2022/06/03 01:05:14;;;;;;;2.90;1.17;;;13.00;99.90;;;;;;5029234;28;20053;-72
2022/06/03 01:07:54;;;;;;;9.45;1.90;;;12.90;99.90;;;;;;5035752;28;20029;-72
2022/06/03 01:10:36;;;;;;;2.22;1.00;;;12.90;99.90;;;;;;5029369;28;20444;-72
2022/06/03 01:13:16;;;;;;;1.90;0.90;;;13.00;99.90;;;;;;5034560;28;20058;-72
2022/06/03 01:15:53;;;;;;;2.45;0.90;;;13.10;99.90;;;;;;5035420;28;20041;-71
2022/06/03 01:18:47;;;;;;;2.03;0.90;;;13.00;99.90;;;;;;5027127;28;20026;-72
2022/06/03 01:21:16;;;;;;;5.53;1.15;;;13.00;99.90;;;;;;5030599;28;20041;-73
2022/06/03 01:24:00;;;;;;;2.13;1.00;;;13.00;99.90;;;;;;5043266;28;20052;-72
2022/06/03 01:26:41;;;;;;;2.00;0.85;;;13.00;99.90;;;;;;5033432;28;20034;-72
2022/06/03 01:29:10;;;;;;;;;;;13.00;99.90;;;;;;5037045;28;20116;-72
2022/06/03 01:31:58;;;;;;;2.08;1.00;;;13.00;99.90;;;;;;5035957;28;20020;-71
2022/06/03 01:35:06;;;;;;;2.05;0.65;;;13.00;99.90;;;;;;5029570;28;20037;-72
2022/06/03 01:37:56;;;;;;;3.97;1.08;;;13.10;99.90;;;;;;5031658;28;20038;-73
2022/06/03 01:40:33;;;;;;;3.90;1.02;;;13.10;99.90;;;;;;5028456;28;20390;-70
2022/06/03 01:43:11;;;;;;;2.38;0.88;;;13.00;99.90;;;;;;5033926;28;20048;-73
2022/06/03 01:45:57;;;;;;;2.13;0.95;;;13.00;99.90;;;;;;5035007;28;20041;-71
2022/06/03 01:48:52;;;;;;;3.78;1.10;;;13.00;99.90;;;;;;5030285;28;20040;-72
2022/06/03 01:51:42;;;;;;;2.13;1.02;;;13.00;99.90;;;;;;5028474;28;20211;-72
2022/06/03 01:54:44;;;;;;;3.08;0.80;;;13.00;99.90;;;;;;5033021;28;20064;-72
2022/06/03 01:57:21;;;;;;;2.03;0.70;;;13.00;99.90;;;;;;5033509;28;20038;-72
2022/06/03 01:59:50;;;;;;;2.45;1.20;;;13.00;99.90;;;;;;5028722;28;20494;-71
2022/06/03 02:02:27;;;;;;;2.45;1.13;;;13.00;99.90;;;;;;5026644;28;20486;-71
2022/06/03 02:05:08;;;;;;;3.28;1.08;;;12.90;99.90;;;;;;5034313;28;20052;-72
2022/06/03 02:08:00;;;;;;;2.65;0.95;;;12.90;99.90;;;;;;5034502;28;20037;-72
2022/06/03 02:10:53;;;;;;;3.60;0.90;;;12.90;99.90;;;;;;5031108;28;20042;-72
2022/06/03 02:13:50;;;;;;;3.17;1.15;;;12.90;99.90;;;;;;5028158;28;20041;-71
2022/06/03 02:16:39;;;;;;;2.50;0.80;;;12.90;99.90;;;;;;5027940;28;20068;-72
2022/06/03 02:19:24;;;;;;;2.95;0.88;;;12.90;99.90;;;;;;5003012;28;20129;-72
2022/06/03 02:22:08;;;;;;;5.18;1.52;;;12.90;99.90;;;;;;5029224;28;20080;-72
2022/06/03 02:24:45;;;;;;;1.60;1.00;;;12.90;99.90;;;;;;5033964;28;20072;-72
2022/06/03 02:27:49;;;;;;;6.78;1.90;;;12.90;99.90;;;;;;5029998;28;20129;-71
2022/06/03 02:30:33;;;;;;;2.45;0.85;;;12.80;99.90;;;;;;5026185;28;20017;-72
2022/06/03 02:33:24;;;;;;;3.65;1.20;;;12.80;99.90;;;;;;5030437;28;20507;-72
2022/06/03 02:36:06;;;;;;;;;;;12.80;99.90;;;;;;5028823;28;20472;-72
2022/06/03 02:38:44;;;;;;;1.55;1.00;;;12.80;99.90;;;;;;5034386;28;19908;-72
2022/06/03 02:41:30;;;;;;;2.03;1.05;;;12.80;99.90;;;;;;5025275;28;20047;-72
2022/06/03 02:44:15;;;;;;;2.75;1.00;;;12.90;99.90;;;;;;5033991;28;20041;-71
2022/06/03 02:46:58;;;;;;;4.25;1.50;;;12.80;99.90;;;;;;5027164;28;20025;-72
2022/06/03 02:50:05;;;;;;;3.10;0.75;;;12.70;99.90;;;;;;5030176;28;20053;-72
2022/06/03 02:52:48;;;;;;;4.43;1.00;;;12.70;99.90;;;;;;5030165;28;20049;-72
2022/06/03 02:55:48;;;;;;;2.85;1.17;;;12.70;99.90;;;;;;5026574;28;20030;-72
2022/06/03 02:58:26;;;;;;;5.78;1.10;;;12.70;99.90;;;;;;5026729;28;20045;-72
2022/06/03 03:01:14;;;;;;;2.28;0.85;;;12.70;99.90;;;;;;5032924;28;20033;-71
2022/06/03 03:04:08;;;;;;;5.75;1.27;;;12.70;99.90;;;;;;5026152;28;20472;-72
2022/06/03 03:06:33;;;;;;;2.95;0.93;;;12.80;99.90;;;;;;5032785;28;20037;-72
2022/06/03 03:09:11;;;;;;;1.98;0.77;;;12.70;99.90;;;;;;5033108;28;20180;-73
2022/06/03 03:11:57;;;;;;;1.95;0.93;;;12.70;99.90;;;;;;5022375;28;20064;-72
2022/06/03 03:14:34;;;;;;;1.48;1.20;;;12.80;99.90;;;;;;5027692;28;20034;-71
2022/06/03 03:17:15;;;;;;;7.78;1.00;;;12.70;99.90;;;;;;5031983;28;20032;-73
2022/06/03 03:20:10;;;;;;;2.03;1.17;;;12.70;99.90;;;;;;5022209;28;20044;-72
2022/06/03 03:22:57;;;;;;;3.67;1.00;;;12.80;99.90;;;;;;5024104;28;20440;-72
2022/06/03 03:25:35;;;;;;;1.63;1.00;;;12.70;99.90;;;;;;5027914;28;20061;-72
2022/06/03 03:28:39;;;;;;;4.90;0.90;;;12.70;99.90;;;;;;5031643;28;20037;-72
2022/06/03 03:31:25;;;;;;;2.55;1.20;;;12.70;99.90;;;;;;5030382;28;20064;-72
2022/06/03 03:34:09;;;;;;;3.17;1.17;;;12.60;99.90;;;;;;5028024;28;20029;-72
2022/06/03 03:37:18;;;;;;;3.80;1.40;;;12.70;99.90;;;;;;5023355;28;20116;-72
2022/06/03 03:40:08;;;;;;;5.53;1.52;;;12.70;99.90;;;;;;5026335;28;20045;-72
2022/06/03 03:43:11;;;;;;;2.85;1.20;;;12.60;99.90;;;;;;5031853;28;20029;-72
2022/06/03 03:46:05;;;;;;;4.13;1.20;;;12.60;99.90;;;;;;5024294;28;20363;-72
2022/06/03 03:48:34;;;;;;;2.33;1.02;;;12.60;99.90;;;;;;5008882;28;20041;-72
2022/06/03 03:51:20;;;;;;;2.13;1.13;;;12.60;99.90;;;;;;5031239;28;20052;-72
2022/06/03 03:54:16;;;;;;;5.10;1.48;;;12.60;99.90;;;;;;5027680;28;20051;-72
2022/06/03 03:57:03;;;;;;;2.65;1.48;;;12.60;99.90;;;;;;5025303;28;20034;-72
2022/06/03 04:00:12;;;;;;;5.50;1.00;;;12.50;99.90;;;;;;5032162;28;20045;-72
2022/06/03 04:02:46;;;;;;;3.22;1.83;;;12.50;99.90;;;;;;5024119;28;20026;-72
2022/06/03 04:05:23;;;;;;;3.38;1.52;;;12.40;99.90;;;;;;5031398;28;20117;-72
2022/06/03 04:08:19;;;;;;;3.25;1.20;;;12.40;99.90;;;;;;5032092;28;20072;-73
2022/06/03 04:11:20;;;;;;;3.05;1.90;;;12.40;99.90;;;;;;5025112;28;20041;-71
2022/06/03 04:14:11;;;;;;;4.20;1.20;;;12.40;99.90;;;;;;5028761;28;20039;-72
2022/06/03 04:17:11;;;;;;;4.40;1.48;;;12.40;99.90;;;;;;5023492;28;20512;-72
2022/06/03 04:20:06;;;;;;;6.45;2.33;;;12.30;99.90;;;;;;5024945;28;20048;-71
2022/06/03 04:22:57;;;;;;;3.25;1.25;;;12.30;99.90;;;;;;5031770;28;20034;-72
2022/06/03 04:25:41;;;;;;;2.08;1.30;;;12.30;99.90;;;;;;5037643;28;20076;-72
2022/06/03 04:28:25;;;;;;;3.88;1.25;;;12.20;99.90;;;;;;5026736;28;20049;-72
2022/06/03 04:31:21;;;;;;;3.40;1.50;;;12.20;99.90;;;;;;5031837;28;20076;-72
2022/06/03 04:33:56;;;;;;;3.85;1.92;;;12.20;99.90;;;;;;5028246;28;20128;-72
2022/06/03 04:36:49;;;;;;;3.60;2.00;;;12.20;99.90;;;;;;5031948;28;20037;-72
2022/06/03 04:40:02;;;;;;;2.40;1.40;;;12.20;99.90;;;;;;5027625;28;20034;-72
2022/06/03 04:43:05;;;;;;;3.78;1.25;;;12.20;99.90;;;;;;5030907;28;20030;-71
2022/06/03 04:46:08;;;;;;;5.13;1.17;;;12.10;99.90;;;;;;5022228;28;20025;-73
2022/06/03 04:49:05;;;;;;;5.45;1.55;;;12.10;99.90;;;;;;5024384;28;20147;-73
2022/06/03 04:51:52;;;;;;;3.60;1.10;;;12.10;99.90;;;;;;5022829;28;20664;-72
2022/06/03 04:55:03;;;;;;;3.13;1.30;;;12.30;99.90;;;;;;5026217;28;20041;-72
2022/06/03 04:58:00;;;;;;;3.03;1.40;;;12.40;99.90;;;;;;5030455;28;20084;-72
2022/06/03 05:00:40;;;;;;;3.42;1.63;;;12.40;99.90;;;;;;5029509;28;20041;-72
2022/06/03 05:03:14;;;;;;;4.70;1.52;;;12.50;99.90;;;;;;5022976;28;20046;-71
2022/06/03 05:06:17;;;;;;;4.07;1.60;;;12.50;99.90;;;;;;5031886;28;20559;-72
2022/06/03 05:09:05;;;;;;;2.53;1.13;;;12.50;99.90;;;;;;5024754;28;20069;-71
2022/06/03 05:11:48;;;;;;;2.50;1.55;;;12.60;99.90;;;;;;5023293;28;20049;-72
2022/06/03 05:14:13;;;;;;;8.23;1.75;;;12.70;99.90;;;;;;5026599;28;20061;-72
2022/06/03 05:17:04;;;;;;;3.65;1.30;;;12.80;99.90;;;;;;5031701;28;20036;-72
2022/06/03 05:20:04;;;;;;;4.88;1.52;;;12.90;99.90;;;;;;5027294;28;20041;-71
2022/06/03 05:22:48;;;;;;;5.47;1.40;;;12.90;99.90;;;;;;5025316;28;20041;-72
2022/06/03 05:25:44;;;;;;;3.08;1.17;;;13.00;99.90;;;;;;5030457;28;20038;-72
2022/06/03 05:28:24;;;;;;;3.38;1.60;;;13.10;99.90;;;;;;5030189;28;20053;-71
2022/06/03 05:31:11;;;;;;;3.00;1.15;;;13.20;99.90;;;;;;5030595;28;20113;-72
2022/06/03 05:34:08;;;;;;;3.58;1.92;;;13.20;99.90;;;;;;5022829;28;20061;-71
2022/06/03 05:36:44;;;;;;;5.70;1.40;;;13.50;99.90;;;;;;5029382;28;20087;-71
2022/06/03 05:39:28;;;;;;;1.95;0.93;;;13.90;99.90;;;;;;5034351;28;20061;-72
2022/06/03 05:42:24;;;;;;;5.28;1.50;;;14.20;99.90;;;;;;5017471;28;20168;-72
2022/06/03 05:44:53;;;;;;;7.93;1.52;;;14.70;99.90;;;;;;5032754;28;20034;-72
2022/06/03 05:47:41;;;;;;;1.38;0.90;;;15.20;99.90;;;;;;5038375;28;20053;-72
2022/06/03 05:50:22;;;;;;;6.75;1.45;;;15.40;99.90;;;;;;5034053;28;20093;-72
2022/06/03 05:53:08;;;;;;;1.60;1.00;;;15.90;99.90;;;;;;5037846;28;20669;-73
2022/06/03 05:55:40;;;;;;;3.03;1.00;;;16.50;99.90;;;;;;5025970;28;20095;-72
2022/06/03 05:58:20;;;;;;;1.90;1.00;;;16.90;99.90;;;;;;5028879;28;20442;-72
2022/06/03 06:01:31;;;;;;;1.90;1.02;;;17.20;99.90;;;;;;5033991;28;20030;-72
2022/06/03 06:04:05;;;;;;;2.38;1.10;;;17.50;99.90;;;;;;5014951;28;20045;-72
2022/06/03 06:06:45;;;;;;;3.15;1.23;;;17.70;99.90;;;;;;5026294;28;20033;-72
2022/06/03 06:09:39;;;;;;;2.17;0.75;;;17.80;99.90;;;;;;5024214;28;20452;-72
2022/06/03 06:12:22;;;;;;;2.90;1.17;;;17.80;99.90;;;;;;5023352;28;20561;-72
2022/06/03 06:14:50;;;;;;;3.38;1.13;;;18.10;99.90;;;;;;5029260;28;20056;-72
2022/06/03 06:17:37;;;;;;;4.93;1.42;;;18.00;99.90;;;;;;5028650;28;20041;-71
2022/06/03 06:20:38;;;;;;;5.35;0.90;;;18.10;99.90;;;;;;5022454;28;20025;-72
2022/06/03 06:23:14;;;;;;;3.17;0.80;;;18.20;99.90;;;;;;5022611;28;20044;-72
2022/06/03 06:26:05;;;;;;;4.22;1.10;;;18.50;99.90;;;;;;5029456;28;20041;-71
2022/06/03 06:29:09;;;;;;;2.00;1.15;;;18.80;99.90;;;;;;5024239;28;20486;-72
2022/06/03 06:32:00;;;;;;;4.65;1.55;;;19.30;99.90;;;;;;5019735;28;20057;-72
2022/06/03 06:34:28;;;;;;;;;;;19.80;99.90;;;;;;5021537;28;20620;-71
2022/06/03 06:37:14;;;;;;;2.08;1.10;;;20.60;97.80;;;;;;5028726;28;20277;-71
2022/06/03 06:39:52;;;;;;;5.50;1.05;;;21.30;98.20;;;;;;5025950;28;20099;-71
2022/06/03 06:42:29;;;;;;;1.95;0.65;;;22.20;97.60;;;;;;5029240;28;20091;-71
2022/06/03 06:45:20;;;;;;;1.58;0.80;;;23.10;94.40;;;;;;5022065;28;20496;-71
2022/06/03 06:48:14;;;;;;;3.10;0.77;;;23.20;91.80;;;;;;5027059;28;20090;-71
2022/06/03 06:50:59;;;;;;;2.15;1.00;;;22.80;94.10;;;;;;5026049;28;20493;-72
2022/06/03 06:53:34;;;;;;;4.60;0.80;;;23.30;93.10;;;;;;5017453;28;20048;-77
2022/06/03 06:56:12;;;;;;;1.42;0.85;;;24.00;91.00;;;;;;5022712;28;20121;-72
2022/06/03 06:59:08;;;;;;;2.17;1.33;;;24.80;91.30;;;;;;5029500;28;20030;-71
2022/06/03 07:01:43;;;;;;;5.82;1.42;;;25.70;85.00;;;;;;5020675;28;20120;-71
2022/06/03 07:04:14;;;;;;;7.95;1.60;;;26.40;83.60;;;;;;5028232;28;20045;-72
2022/06/03 07:06:50;;;;;;;2.17;1.15;;;26.40;81.00;;;;;;5022786;28;20034;-72
2022/06/03 07:09:45;;;;;;;3.47;1.17;;;27.40;79.50;;;;;;5020435;28;20025;-72
2022/06/03 07:12:14;;;;;;;1.60;1.05;;;27.60;76.30;;;;;;5025374;28;20451;-73
2022/06/03 07:15:06;;;;;;;1.20;0.90;;;28.10;74.00;;;;;;5029329;28;20026;-72
2022/06/03 07:20:27;;;;;;;2.35;1.10;;;28.40;71.90;;;;;;5021679;28;20077;-71
2022/06/03 07:23:16;;;;;;;2.85;1.38;;;28.70;73.40;;;;;;5008266;28;20038;-72
2022/06/03 07:25:46;;;;;;;3.65;1.50;;;29.60;68.30;;;;;;5006321;28;20049;-72
2022/06/03 07:28:24;;;;;;;2.92;1.60;;;29.40;68.10;;;;;;5008455;28;20390;-70
2022/06/03 07:31:15;;;;;;;3.38;1.27;;;29.60;66.90;;;;;;5006927;28;20030;-72
2022/06/03 07:33:53;;;;;;;1.48;1.30;;;29.50;67.70;;;;;;5006617;28;20041;-71
2022/06/03 07:36:28;;;;;;;6.43;1.65;;;29.30;68.30;;;;;;5008788;28;20041;-72
2022/06/03 07:38:56;;;;;;;3.53;1.58;;;29.70;64.60;;;;;;5007183;28;20517;-73
2022/06/03 07:41:41;;;;;;;2.50;1.48;;;30.00;65.00;;;;;;5001114;28;20038;-72
2022/06/03 07:44:24;;;;;;;2.70;1.40;;;30.60;64.40;;;;;;5006744;28;20033;-72
2022/06/03 07:46:54;;;;;;;1.52;1.23;;;30.70;62.40;;;;;;5009876;28;20116;-72
2022/06/03 07:49:25;;;;;;;4.10;1.17;;;30.20;63.40;;;;;;5007455;28;20034;-72
2022/06/03 07:52:25;;;;;;;1.77;1.05;;;30.20;61.10;;;;;;5006243;28;20056;-72
2022/06/03 07:54:57;;;;;;;2.45;1.10;;;30.30;61.30;;;;;;5006641;28;20065;-71
2022/06/03 07:57:25;;;;;;;2.90;1.23;;;30.40;63.40;;;;;;5006990;28;20375;-72
2022/06/03 07:59:55;;;;;;;1.88;1.30;;;30.20;59.90;;;;;;5017779;28;20059;-72
2022/06/03 08:02:22;;;;;;;2.45;1.30;;;30.10;59.40;;;;;;4998736;28;20077;-72
2022/06/03 08:05:13;;;;;;;3.88;1.58;;;29.50;61.00;;;;;;5005762;28;20111;-72
2022/06/03 08:13:17;;;;;;;2.87;0.93;;;28.50;62.90;;;;;;5007281;28;20076;-71
2022/06/03 08:16:14;;;;;;;3.88;1.45;;;27.90;61.30;;;;;;5008027;28;20328;-72
2022/06/03 08:18:42;;;;;;;1.75;0.60;;;27.50;62.10;;;;;;4995775;28;20080;-71
2022/06/03 08:21:13;;;;;;;2.25;1.30;;;26.80;63.30;;;;;;5007028;28;20112;-70
2022/06/03 08:23:40;;;;;;;1.35;0.80;;;25.80;65.80;;;;;;5005553;28;20443;-72
2022/06/03 08:26:11;;;;;;;1.58;1.13;;;25.10;67.30;;;;;;5006365;28;20045;-71
2022/06/03 08:28:39;;;;;;;1.10;0.60;;;24.90;68.40;;;;;;5008185;28;20080;-72
2022/06/03 08:31:06;;;;;;;1.67;0.73;;;25.00;66.60;;;;;;5006143;28;20030;-71
2022/06/03 08:33:49;;;;;;;3.20;1.95;;;24.80;66.80;;;;;;5006123;28;20030;-72
2022/06/03 08:36:19;;;;;;;2.05;0.98;;;24.60;68.30;;;;;;5005313;28;20050;-72
2022/06/03 08:39:05;;;;;;;;;;;24.50;71.40;;;;;;5007666;28;20144;-71
2022/06/03 08:41:43;;;;;;;1.27;0.90;;;24.40;71.80;;;;;;5005273;28;20395;-71
2022/06/03 08:44:17;;;;;;;3.00;1.17;;;24.30;70.90;;;;;;5006175;28;20042;-72
2022/06/03 08:46:54;;;;;;;3.13;1.20;;;24.10;71.00;;;;;;5008159;28;20032;-71
2022/06/03 08:49:26;;;;;;;19.83;1.00;;;24.00;70.20;;;;;;5005631;28;20436;-70
2022/06/03 08:52:00;;;;;;;2.65;1.10;;;23.90;71.60;;;;;;5004335;28;20618;-72
2022/06/03 08:54:48;;;;;;;3.65;0.90;;;23.80;72.50;;;;;;5008589;28;20045;-71
2022/06/03 08:57:37;;;;;;;1.63;1.00;;;23.70;72.50;;;;;;5007800;28;20034;-72
2022/06/03 09:00:27;;;;;;;4.47;1.42;;;23.70;73.10;;;;;;5008476;28;20049;-71
2022/06/03 09:03:09;;;;;;;2.85;1.00;;;23.70;72.80;;;;;;5008721;28;20065;-72
2022/06/03 09:05:44;;;;;;;1.52;0.70;;;23.90;71.90;;;;;;5008492;28;20569;-72
2022/06/03 09:08:13;;;;;;;3.97;0.90;;;24.10;70.70;;;;;;5009315;28;20502;-71
2022/06/03 09:10:45;;;;;;;1.15;0.65;;;24.00;71.60;;;;;;5010514;28;20094;-71
2022/06/03 09:13:25;;;;;;;3.78;1.02;;;23.90;73.30;;;;;;5008206;28;20052;-72
2022/06/03 09:15:52;;;;;;;6.20;0.93;;;23.90;72.90;;;;;;5017586;28;20460;-72
2022/06/03 09:18:21;;;;;;;4.28;1.27;;;23.80;74.30;;;;;;5012385;28;20057;-71
2022/06/03 09:21:17;;;;;;;2.00;0.93;;;23.70;75.40;;;;;;5021141;28;20128;-71
2022/06/03 09:23:48;;;;;;;5.03;1.02;;;23.80;75.60;;;;;;5027766;28;20045;-71
2022/06/03 09:26:32;;;;;;;1.95;0.70;;;23.70;75.70;;;;;;5018089;28;20079;-72
2022/06/03 09:29:01;;;;;;;1.33;0.80;;;23.90;76.10;;;;;;5024632;28;20068;-72
2022/06/03 09:31:27;;;;;;;3.10;0.77;;;24.00;72.50;;;;;;5008953;28;20125;-72
2022/06/03 09:33:56;;;;;;;2.00;1.00;;;24.10;73.40;;;;;;5010464;28;20029;-72
2022/06/03 09:36:23;;;;;;;3.30;0.60;;;24.10;73.40;;;;;;5012801;28;20410;-72
2022/06/03 09:38:51;;;;;;;2.60;1.20;;;24.10;71.50;;;;;;5029141;28;20128;-72
2022/06/03 09:41:21;;;;;;;3.22;0.90;;;24.20;72.30;;;;;;5027696;28;20498;-72
2022/06/03 09:43:50;;;;;;;2.22;0.98;;;24.00;74.30;;;;;;5020811;28;20075;-71
2022/06/03 09:46:17;;;;;;;2.97;0.90;;;24.00;75.00;;;;;;5020677;28;20476;-72
2022/06/03 09:48:43;;;;;;;1.92;0.80;;;24.00;74.90;;;;;;5026817;28;20026;-72
2022/06/03 09:52:13;;;;;;;2.83;0.68;;;24.00;75.00;;;;;;5028821;28;20117;-71
2022/06/03 09:54:27;;;;;;;2.13;0.50;;;24.10;71.70;;;;;;5009206;28;20025;-72
2022/06/03 09:56:58;;;;;;;1.30;0.40;;;24.40;70.20;;;;;;5022330;28;20029;-71
2022/06/03 09:59:25;;;;;;;1.65;0.50;;;24.50;70.90;;;;;;5028017;28;20025;-71
2022/06/03 10:01:51;;;;;;;2.50;0.50;;;24.60;69.80;;;;;;5019510;28;20061;-72
2022/06/03 10:04:20;;;;;;;1.05;0.40;;;24.70;67.50;;;;;;5009390;28;20189;-72
2022/06/03 10:06:46;;;;;;;0.65;0.40;;;24.80;68.50;;;;;;5012168;28;20034;-72
2022/06/03 10:17:48;;;;;;;1.13;0.60;;;24.80;67.00;;;;;;5010285;28;20665;-71
2022/06/03 10:20:15;;;;;;;1.15;0.50;;;24.80;69.70;;;;;;5009104;28;20041;-71
2022/06/03 10:22:41;;;;;;;1.40;0.22;;;24.80;68.00;;;;;;5011188;28;20442;-71
2022/06/03 10:25:08;;;;;;;2.25;0.40;;;24.90;66.60;;;;;;5018501;28;20041;-70
2022/06/03 10:27:34;;;;;;;0.70;0.30;;;25.00;67.40;;;;;;5029455;28;20047;-71
2022/06/03 10:30:00;;;;;;;1.00;0.50;;;24.90;66.90;;;;;;5029788;28;20048;-70
2022/06/03 10:32:26;;;;;;;1.17;0.50;;;25.00;65.50;;;;;;5029884;28;20080;-70
2022/06/03 10:34:57;;;;;;;1.80;0.45;;;24.80;66.00;;;;;;5030106;28;20029;-71
2022/06/03 10:37:25;;;;;;;0.50;0.20;;;24.80;65.40;;;;;;5017066;28;20116;-71
2022/06/03 10:39:55;;;;;;;2.58;0.32;;;24.90;65.30;;;;;;5012623;28;20458;-70
2022/06/03 10:42:22;;;;;;;;;;;24.90;66.10;;;;;;5015928;28;20460;-71
2022/06/03 10:44:54;;;;;;;2.47;0.50;;;25.00;66.00;;;;;;5019021;28;20297;-70
2022/06/03 10:47:23;;;;;;;0.93;0.35;;;25.00;63.80;;;;;;5017930;28;20049;-70
2022/06/03 10:49:53;;;;;;;0.98;0.40;;;25.10;65.00;;;;;;5018813;28;20103;-71
2022/06/03 11:01:46;;;;;;;5.32;0.43;;;25.00;63.70;;;;;;5011641;28;20045;-71
2022/06/03 11:04:39;;;;;;;3.75;0.40;;;25.00;63.50;;;;;;5001739;28;20030;-71
2022/06/03 11:07:25;;;;;;;2.95;0.93;;;25.00;67.40;;;;;;5013925;28;20033;-71
2022/06/03 11:09:56;;;;;;;0.82;0.40;;;25.10;64.80;;;;;;5013255;28;20088;-71
2022/06/03 11:12:27;;;;;;;2.58;0.40;;;25.20;66.30;;;;;;5013888;28;20071;-69
2022/06/03 11:14:53;;;;;;;1.45;0.40;;;25.10;64.80;;;;;;5009372;28;20084;-71
2022/06/03 11:17:23;;;;;;;0.68;0.40;;;25.00;65.70;;;;;;5015333;28;20030;-73
2022/06/03 11:19:54;;;;;;;2.33;0.60;;;25.00;64.80;;;;;;5014913;28;20040;-71
2022/06/03 11:22:39;;;;;;;1.35;0.65;;;24.90;65.10;;;;;;5010004;28;20513;-72
2022/06/03 11:25:26;;;;;;;2.85;0.32;;;24.90;64.20;;;;;;5010609;28;20647;-71
2022/06/03 11:28:11;;;;;;;1.52;0.40;;;25.00;66.10;;;;;;5013146;28;20061;-71
2022/06/03 11:30:43;;;;;;;0.50;0.40;;;25.10;62.40;;;;;;5014545;28;20112;-72
2022/06/03 11:33:30;;;;;;;1.05;0.73;;;25.10;63.60;;;;;;5010005;28;20129;-71
2022/06/03 11:36:05;;;;;;;0.82;0.40;;;25.00;62.60;;;;;;5011069;28;20042;-72
2022/06/03 11:38:49;;;;;;;1.02;0.40;;;24.90;62.50;;;;;;5013543;28;20087;-71
2022/06/03 11:41:27;;;;;;;1.08;0.43;;;24.90;64.60;;;;;;5013986;28;20033;-71
2022/06/03 11:44:05;;;;;;;1.40;0.40;;;24.90;63.50;;;;;;5013487;28;20149;-71
2022/06/03 11:46:43;;;;;;;1.63;0.40;;;24.80;64.00;;;;;;5011521;28;20033;-71
2022/06/03 11:49:09;;;;;;;8.25;0.73;;;24.80;66.20;;;;;;5009170;28;20037;-72
2022/06/03 11:51:36;;;;;;;0.90;0.30;;;24.90;66.20;;;;;;5012084;28;20397;-71
2022/06/03 11:54:02;;;;;;;0.85;0.40;;;25.00;61.90;;;;;;5013441;28;20413;-71
2022/06/03 11:56:31;;;;;;;2.70;0.40;;;25.00;61.00;;;;;;5012042;28;20032;-71
2022/06/03 11:59:25;;;;;;;0.55;0.30;;;24.90;61.50;;;;;;5016066;28;20081;-71
2022/06/03 12:01:59;;;;;;;0.77;0.30;;;24.80;60.50;;;;;;5012928;28;20038;-71
2022/06/03 12:04:47;;;;;;;0.75;0.45;;;24.80;59.10;;;;;;5012544;28;20886;-72
2022/06/03 12:07:33;;;;;;;1.55;0.50;;;24.80;58.90;;;;;;5007540;28;20450;-71
2022/06/03 12:10:07;;;;;;;0.55;0.28;;;24.80;58.70;;;;;;5014546;28;20039;-71
2022/06/03 12:15:40;;;;;;;0.60;0.30;;;24.90;59.30;;;;;;5013391;28;20061;-70
2022/06/03 12:18:06;;;;;;;1.60;0.30;;;24.90;58.40;;;;;;5008010;28;20441;-70
2022/06/03 12:20:31;;;;;;;0.65;0.40;;;24.80;59.60;;;;;;5014212;28;20033;-71
2022/06/03 12:23:18;;;;;;;1.13;0.40;;;24.80;59.10;;;;;;5012697;28;20049;-71
2022/06/03 12:25:53;;;;;;;5.47;0.68;;;24.80;59.90;;;;;;5010765;28;20030;-71
2022/06/03 12:28:24;;;;;;;0.98;0.57;;;24.80;58.30;;;;;;5012095;28;20065;-70
2022/06/03 12:31:13;;;;;;;0.80;0.30;;;24.70;59.30;;;;;;5023380;28;20038;-68
2022/06/03 12:33:56;;;;;;;0.43;0.32;;;24.70;62.10;;;;;;5012193;28;20034;-71
2022/06/03 12:36:25;;;;;;;1.00;0.30;;;24.80;59.80;;;;;;5030407;28;20081;-71
2022/06/03 12:39:18;;;;;;;2.30;0.30;;;24.70;60.00;;;;;;5031758;28;20634;-71
2022/06/03 12:41:44;;;;;;;0.40;0.10;;;24.50;60.50;;;;;;5005168;28;20123;-70
2022/06/03 12:44:43;;;;;;;2.22;0.40;;;24.40;62.80;;;;;;5029488;28;20067;-71
2022/06/03 12:47:18;;;;;;;1.17;0.40;;;24.50;61.50;;;;;;5024552;28;20111;-71
2022/06/03 12:49:43;;;;;;;1.95;0.50;;;24.60;60.50;;;;;;5029635;28;20428;-71
2022/06/03 12:52:21;;;;;;;0.17;0.17;;;24.70;61.50;;;;;;5031151;28;20041;-71
2022/06/03 12:54:56;;;;;;;0.80;0.45;;;24.80;63.90;;;;;;5025752;28;20498;-71
2022/06/03 12:57:46;;;;;;;0.75;0.30;;;24.80;66.00;;;;;;5026234;28;20034;-74
2022/06/03 13:00:20;;;;;;;0.85;0.50;;;24.90;61.00;;;;;;5024403;28;20037;-71
2022/06/03 13:02:51;;;;;;;1.90;0.40;;;25.00;61.30;;;;;;5030965;28;20033;-70
2022/06/03 13:05:39;;;;;;;3.67;0.60;;;24.90;62.50;;;;;;5030793;28;20045;-71
2022/06/03 13:08:27;;;;;;;2.47;0.28;;;24.90;61.80;;;;;;5019403;28;20108;-73
2022/06/03 13:11:03;;;;;;;0.80;0.20;;;24.90;61.50;;;;;;5029548;28;20035;-73
2022/06/03 13:13:29;;;;;;;3.03;1.05;;;24.90;61.90;;;;;;5030195;28;20491;-71
2022/06/03 13:16:24;;;;;;;3.80;0.60;;;25.00;61.40;;;;;;5030611;28;20061;-71
2022/06/03 13:18:52;;;;;;;3.85;0.70;;;25.00;60.50;;;;;;5028113;28;20110;-71
2022/06/03 13:21:24;;;;;;;0.80;0.30;;;25.00;60.60;;;;;;5030440;28;20046;-70
2022/06/03 13:23:50;;;;;;;2.08;0.47;;;25.00;60.50;;;;;;5030863;28;20044;-71
2022/06/03 13:26:21;;;;;;;0.50;0.22;;;25.00;60.80;;;;;;5029839;28;20417;-71
2022/06/03 13:28:49;;;;;;;0.60;0.30;;;25.00;59.00;;;;;;5031050;28;20549;-71
2022/06/03 13:31:19;;;;;;;0.45;0.32;;;25.00;58.10;;;;;;5030079;28;20107;-71
2022/06/03 13:34:12;;;;;;;0.50;0.20;;;25.00;59.00;;;;;;5030374;28;20060;-71
2022/06/03 13:36:40;;;;;;;6.70;0.30;;;25.00;58.50;;;;;;5024437;28;20037;-71
2022/06/03 13:39:13;;;;;;;0.68;0.20;;;25.00;58.50;;;;;;5029240;28;20064;-71
2022/06/03 13:44:47;;;;;;;0.47;0.40;;;25.00;60.80;;;;;;5030108;28;20091;-71
2022/06/03 13:47:24;;;;;;;6.68;0.50;;;24.90;61.10;;;;;;5025253;28;20121;-71
2022/06/03 13:49:56;;;;;;;2.38;0.30;;;24.80;60.50;;;;;;5026757;28;20120;-71
2022/06/03 13:52:27;;;;;;;0.35;0.20;;;24.80;60.50;;;;;;5029857;28;20033;-70
2022/06/03 13:55:02;;;;;;;;;;;24.70;60.00;;;;;;5029477;28;20026;-70
2022/06/03 13:57:40;;;;;;;1.10;0.55;;;24.70;62.00;;;;;;5027287;28;19913;-71
2022/06/03 14:00:09;;;;;;;1.10;0.47;;;24.80;60.20;;;;;;5021818;28;20652;-71
2022/06/03 14:02:37;;;;;;;1.13;0.20;;;24.80;60.50;;;;;;5029408;28;20038;-71
2022/06/03 14:05:15;;;;;;;3.13;0.20;;;24.70;62.70;;;;;;5028800;28;20044;-71
2022/06/03 14:08:10;;;;;;;0.90;0.45;;;24.70;61.20;;;;;;5024809;28;20037;-71
2022/06/03 14:11:20;;;;;;;1.15;0.22;;;24.80;59.80;;;;;;5022282;28;20030;-71
2022/06/03 14:14:03;;;;;;;1.85;0.40;;;24.70;60.00;;;;;;4999890;28;20038;-71
2022/06/03 14:16:34;;;;;;;3.08;0.50;;;24.50;62.40;;;;;;5020951;28;20446;-71
2022/06/03 14:19:28;;;;;;;2.20;0.50;;;24.50;63.20;;;;;;5025492;28;20048;-71
2022/06/03 14:21:55;;;;;;;1.98;0.40;;;24.40;64.60;;;;;;5027607;28;20033;-71
2022/06/03 14:24:32;;;;;;;1.58;0.50;;;24.40;63.70;;;;;;5028354;28;20124;-72
2022/06/03 14:27:31;;;;;;;0.93;0.40;;;24.40;64.20;;;;;;5021571;28;20053;-71
2022/06/03 14:30:02;;;;;;;1.77;0.40;;;24.40;63.80;;;;;;5028470;28;20060;-71
2022/06/03 14:32:33;;;;;;;0.73;0.30;;;24.40;64.70;;;;;;5028783;28;20039;-71